Time,TemperatureF,DewpointF,PressureIn,WindDirection,WindDirectionDegrees,WindSpeedMPH,WindSpeedGustMPH,Humidity,HourlyPrecipIn,Conditions,Clouds,dailyrainin,SolarRadiationWatts/m^2,SoftwareType,DateUTC
2013-06-03 00:02:00,46.0,35.0,-100.00,NW,308,3.0,5.0,64,0.00,,,0.02,0.000000,,2013-06-03 06:02:00,
2013-06-03 00:12:00,46.0,35.0,-100.00,NW,308,3.0,5.0,64,0.00,,,0.02,0.000000,,2013-06-03 06:12:00,
2013-06-03 00:22:00,46.0,35.0,-100.00,NW,308,3.0,5.0,64,0.00,,,0.02,0.000000,,2013-06-03 06:22:00,
2013-06-03 00:32:00,46.0,35.0,-100.00,NW,308,3.0,5.0,64,0.00,,,0.02,0.000000,,2013-06-03 06:32:00,
2013-06-03 00:52:00,45.0,35.0,-100.00,NW,314,5.0,7.0,68,0.00,,,0.02,0.000000,,2013-06-03 06:52:00,
2013-06-03 01:02:00,45.0,35.0,-100.00,NW,314,5.0,7.0,68,0.00,,,0.02,0.000000,,2013-06-03 07:02:00,
2013-06-03 01:12:00,45.0,35.0,-100.00,NW,314,5.0,7.0,68,0.00,,,0.02,0.000000,,2013-06-03 07:12:00,
2013-06-03 01:22:00,45.0,35.0,-100.00,NW,314,5.0,7.0,68,0.00,,,0.02,0.000000,,2013-06-03 07:22:00,
2013-06-03 01:32:00,45.0,35.0,-100.00,NW,314,5.0,7.0,68,0.00,,,0.02,0.000000,,2013-06-03 07:32:00,
2013-06-03 02:02:00,44.0,35.0,-100.00,ENE,62,2.0,7.0,71,0.00,,,0.02,0.000000,,2013-06-03 08:02:00,
2013-06-03 02:12:00,44.0,35.0,-100.00,ENE,62,2.0,7.0,71,0.00,,,0.02,0.000000,,2013-06-03 08:12:00,
2013-06-03 02:22:00,44.0,35.0,-100.00,ENE,62,2.0,7.0,71,0.00,,,0.02,0.000000,,2013-06-03 08:22:00,
2013-06-03 02:32:00,44.0,35.0,-100.00,ENE,62,2.0,7.0,71,0.00,,,0.02,0.000000,,2013-06-03 08:32:00,
2013-06-03 02:52:00,43.0,37.0,-100.00,North,8,2.0,5.0,78,0.00,,,0.02,0.000000,,2013-06-03 08:52:00,
2013-06-03 03:02:00,43.0,37.0,-100.00,North,8,2.0,5.0,78,0.00,,,0.02,0.000000,,2013-06-03 09:02:00,
2013-06-03 03:12:00,43.0,37.0,-100.00,North,8,2.0,5.0,78,0.00,,,0.02,0.000000,,2013-06-03 09:12:00,
2013-06-03 03:22:00,43.0,37.0,-100.00,North,8,2.0,5.0,78,0.00,,,0.02,0.000000,,2013-06-03 09:22:00,
2013-06-03 03:33:00,43.0,37.0,-100.00,North,8,2.0,5.0,78,0.00,,,0.02,0.000000,,2013-06-03 09:33:00,
2013-06-03 03:53:00,42.0,36.0,-100.00,ENE,61,0.0,3.0,80,0.00,,,0.02,0.000000,,2013-06-03 09:53:00,
2013-06-03 04:03:00,42.0,36.0,-100.00,ENE,61,0.0,3.0,80,0.00,,,0.02,0.000000,,2013-06-03 10:03:00,
2013-06-03 04:12:00,42.0,36.0,-100.00,ENE,61,0.0,3.0,80,0.00,,,0.02,0.000000,,2013-06-03 10:12:00,
2013-06-03 04:22:00,42.0,36.0,-100.00,ENE,61,0.0,3.0,80,0.00,,,0.02,0.000000,,2013-06-03 10:22:00,
2013-06-03 04:32:00,42.0,36.0,-100.00,ENE,61,0.0,3.0,80,0.00,,,0.02,0.000000,,2013-06-03 10:32:00,
2013-06-03 04:52:00,41.0,35.0,-100.00,East,96,5.0,6.0,79,0.00,,,0.02,0.000000,,2013-06-03 10:52:00,
2013-06-03 05:02:00,41.0,35.0,-100.00,East,96,5.0,6.0,79,0.00,,,0.02,0.000000,,2013-06-03 11:02:00,
2013-06-03 05:12:00,41.0,35.0,-100.00,East,96,5.0,6.0,79,0.00,,,0.02,0.000000,,2013-06-03 11:12:00,
2013-06-03 05:22:00,41.0,35.0,-100.00,East,96,5.0,6.0,79,0.00,,,0.02,0.000000,,2013-06-03 11:22:00,
2013-06-03 05:32:00,41.0,35.0,-100.00,East,96,5.0,6.0,79,0.00,,,0.02,0.000000,,2013-06-03 11:32:00,
2013-06-03 06:02:00,40.0,35.0,-100.00,ESE,103,4.0,6.0,81,0.00,,,0.02,0.000000,,2013-06-03 12:02:00,
2013-06-03 06:12:00,40.0,35.0,-100.00,ESE,103,4.0,6.0,81,0.00,,,0.02,0.000000,,2013-06-03 12:12:00,
2013-06-03 06:22:00,40.0,35.0,-100.00,ESE,103,4.0,6.0,81,0.00,,,0.02,0.000000,,2013-06-03 12:22:00,
2013-06-03 06:32:00,40.0,35.0,-100.00,ESE,103,4.0,6.0,81,0.00,,,0.02,0.000000,,2013-06-03 12:32:00,
2013-06-03 06:52:00,39.0,34.0,-100.00,East,84,4.0,6.0,82,0.00,,,0.02,7.000000,,2013-06-03 12:52:00,
2013-06-03 07:02:00,39.0,34.0,-100.00,East,84,4.0,6.0,82,0.00,,,0.02,7.000000,,2013-06-03 13:02:00,
2013-06-03 07:12:00,39.0,34.0,-100.00,East,84,4.0,6.0,82,0.00,,,0.02,7.000000,,2013-06-03 13:12:00,
2013-06-03 07:22:00,39.0,34.0,-100.00,East,84,4.0,6.0,82,0.00,,,0.02,7.000000,,2013-06-03 13:22:00,
2013-06-03 07:32:00,39.0,34.0,-100.00,East,84,4.0,6.0,82,0.00,,,0.02,7.000000,,2013-06-03 13:32:00,
2013-06-03 07:52:00,42.0,34.0,-100.00,East,91,5.0,7.0,74,0.00,,,0.02,129.000000,,2013-06-03 13:52:00,
2013-06-03 08:02:00,42.0,34.0,-100.00,East,91,5.0,7.0,74,0.00,,,0.02,129.000000,,2013-06-03 14:02:00,
2013-06-03 08:12:00,42.0,34.0,-100.00,East,91,5.0,7.0,74,0.00,,,0.02,129.000000,,2013-06-03 14:12:00,
2013-06-03 08:22:00,42.0,34.0,-100.00,East,91,5.0,7.0,74,0.00,,,0.02,129.000000,,2013-06-03 14:22:00,
2013-06-03 08:32:00,42.0,34.0,-100.00,East,91,5.0,7.0,74,0.00,,,0.02,129.000000,,2013-06-03 14:32:00,
2013-06-03 08:52:00,47.0,36.0,-100.00,East,99,4.0,9.0,66,0.00,,,0.02,304.000000,,2013-06-03 14:52:00,
2013-06-03 09:02:00,47.0,36.0,-100.00,East,99,4.0,9.0,66,0.00,,,0.02,304.000000,,2013-06-03 15:02:00,
2013-06-03 09:12:00,47.0,36.0,-100.00,East,99,4.0,9.0,66,0.00,,,0.02,304.000000,,2013-06-03 15:12:00,
2013-06-03 09:22:00,47.0,36.0,-100.00,East,99,4.0,9.0,66,0.00,,,0.02,304.000000,,2013-06-03 15:22:00,
2013-06-03 09:33:00,47.0,36.0,-100.00,East,99,4.0,9.0,66,0.00,,,0.02,304.000000,,2013-06-03 15:33:00,
2013-06-03 09:53:00,53.0,38.0,-100.00,SW,225,0.0,8.0,56,0.00,,,0.02,487.000000,,2013-06-03 15:53:00,
2013-06-03 10:03:00,53.0,38.0,-100.00,SW,225,0.0,8.0,56,0.00,,,0.02,487.000000,,2013-06-03 16:03:00,
2013-06-03 10:23:00,53.0,38.0,-100.00,SW,225,0.0,8.0,56,0.00,,,0.02,487.000000,,2013-06-03 16:23:00,
2013-06-03 10:32:00,53.0,38.0,-100.00,SW,225,0.0,8.0,56,0.00,,,0.02,487.000000,,2013-06-03 16:32:00,
2013-06-03 11:02:00,54.0,33.0,-100.00,North,0,4.0,9.0,44,0.00,,,0.02,603.000000,,2013-06-03 17:02:00,
2013-06-03 11:12:00,54.0,33.0,-100.00,North,0,4.0,9.0,44,0.00,,,0.02,603.000000,,2013-06-03 17:12:00,
2013-06-03 11:22:00,54.0,33.0,-100.00,North,0,4.0,9.0,44,0.00,,,0.02,603.000000,,2013-06-03 17:22:00,
2013-06-03 11:33:00,54.0,33.0,-100.00,North,0,4.0,9.0,44,0.00,,,0.02,603.000000,,2013-06-03 17:33:00,
2013-06-03 11:52:00,56.0,33.0,-100.00,WNW,287,5.0,12.0,42,0.00,,,0.02,626.000000,,2013-06-03 17:52:00,
2013-06-03 12:02:00,56.0,33.0,-100.00,WNW,287,5.0,12.0,42,0.00,,,0.02,626.000000,,2013-06-03 18:02:00,
2013-06-03 12:12:00,56.0,33.0,-100.00,WNW,287,5.0,12.0,42,0.00,,,0.02,626.000000,,2013-06-03 18:12:00,
2013-06-03 12:22:00,56.0,33.0,-100.00,WNW,287,5.0,12.0,42,0.00,,,0.02,626.000000,,2013-06-03 18:22:00,
2013-06-03 12:32:00,56.0,33.0,-100.00,WNW,287,5.0,12.0,42,0.00,,,0.02,626.000000,,2013-06-03 18:32:00,
2013-06-03 13:03:00,59.0,29.0,-100.00,NNW,334,3.0,9.0,32,0.00,,,0.02,863.000000,,2013-06-03 19:03:00,
2013-06-03 13:12:00,59.0,29.0,-100.00,NNW,334,3.0,9.0,32,0.00,,,0.02,863.000000,,2013-06-03 19:12:00,
2013-06-03 13:22:00,59.0,29.0,-100.00,NNW,334,3.0,9.0,32,0.00,,,0.02,863.000000,,2013-06-03 19:22:00,
2013-06-03 13:32:00,59.0,29.0,-100.00,NNW,334,3.0,9.0,32,0.00,,,0.02,863.000000,,2013-06-03 19:32:00,
2013-06-03 13:52:00,63.0,32.0,-100.00,WSW,240,4.0,8.0,31,0.00,,,0.02,872.000000,,2013-06-03 19:52:00,
2013-06-03 14:02:00,63.0,32.0,-100.00,WSW,240,4.0,8.0,31,0.00,,,0.02,872.000000,,2013-06-03 20:02:00,
2013-06-03 14:12:00,63.0,32.0,-100.00,WSW,240,4.0,8.0,31,0.00,,,0.02,872.000000,,2013-06-03 20:12:00,
2013-06-03 14:22:00,63.0,32.0,-100.00,WSW,240,4.0,8.0,31,0.00,,,0.02,872.000000,,2013-06-03 20:22:00,
2013-06-03 14:32:00,63.0,32.0,-100.00,WSW,240,4.0,8.0,31,0.00,,,0.02,872.000000,,2013-06-03 20:32:00,
2013-06-03 14:52:00,63.0,29.0,-100.00,SW,220,6.0,11.0,28,0.00,,,-99.99,935.000000,,2013-06-03 20:52:00,
2013-06-03 15:02:00,63.0,29.0,-100.00,SW,220,6.0,11.0,28,0.00,,,-99.99,935.000000,,2013-06-03 21:02:00,
2013-06-03 15:12:00,63.0,29.0,-100.00,SW,220,6.0,11.0,28,0.00,,,-99.99,935.000000,,2013-06-03 21:12:00,
2013-06-03 15:22:00,63.0,29.0,-100.00,SW,220,6.0,11.0,28,0.00,,,-99.99,935.000000,,2013-06-03 21:22:00,
2013-06-03 15:32:00,63.0,29.0,-100.00,SW,220,6.0,11.0,28,0.00,,,-99.99,935.000000,,2013-06-03 21:32:00,
2013-06-03 15:53:00,66.0,28.0,-100.00,NW,316,7.0,14.0,24,0.00,,,0.01,920.000000,,2013-06-03 21:53:00,
2013-06-03 16:03:00,66.0,28.0,-100.00,NW,316,7.0,14.0,24,0.00,,,0.01,920.000000,,2013-06-03 22:03:00,
2013-06-03 16:12:00,66.0,28.0,-100.00,NW,316,7.0,14.0,24,0.00,,,0.01,920.000000,,2013-06-03 22:12:00,
2013-06-03 16:22:00,66.0,28.0,-100.00,NW,316,7.0,14.0,24,0.00,,,0.01,920.000000,,2013-06-03 22:22:00,
2013-06-03 16:32:00,66.0,28.0,-100.00,NW,316,7.0,14.0,24,0.00,,,0.01,920.000000,,2013-06-03 22:32:00,
2013-06-03 16:53:00,67.0,28.0,-100.00,WNW,286,9.0,17.0,23,0.00,,,0.00,751.000000,,2013-06-03 22:53:00,
2013-06-03 17:02:00,67.0,28.0,-100.00,WNW,286,9.0,17.0,23,0.00,,,0.00,751.000000,,2013-06-03 23:02:00,
2013-06-03 17:12:00,67.0,28.0,-100.00,WNW,286,9.0,17.0,23,0.00,,,0.00,751.000000,,2013-06-03 23:12:00,
2013-06-03 17:22:00,67.0,28.0,-100.00,WNW,286,9.0,17.0,23,0.00,,,0.00,751.000000,,2013-06-03 23:22:00,
2013-06-03 17:32:00,67.0,28.0,-100.00,WNW,286,9.0,17.0,23,0.00,,,0.00,751.000000,,2013-06-03 23:32:00,
2013-06-03 18:02:00,63.0,29.0,-100.00,West,273,6.0,17.0,27,0.00,,,0.00,617.000000,,2013-06-04 00:02:00,
2013-06-03 18:12:00,63.0,29.0,-100.00,West,273,6.0,17.0,27,0.00,,,0.00,617.000000,,2013-06-04 00:12:00,
2013-06-03 18:22:00,63.0,29.0,-100.00,West,273,6.0,17.0,27,0.00,,,0.00,617.000000,,2013-06-04 00:22:00,
2013-06-03 18:32:00,63.0,29.0,-100.00,West,273,6.0,17.0,27,0.00,,,0.00,617.000000,,2013-06-04 00:32:00,
2013-06-03 18:52:00,65.0,28.0,-100.00,WNW,293,9.0,14.0,25,0.00,,,0.00,397.000000,,2013-06-04 00:52:00,
2013-06-03 19:02:00,65.0,28.0,-100.00,WNW,293,9.0,14.0,25,0.00,,,0.00,397.000000,,2013-06-04 01:02:00,
2013-06-03 19:12:00,65.0,28.0,-100.00,WNW,293,9.0,14.0,25,0.00,,,0.00,397.000000,,2013-06-04 01:12:00,
2013-06-03 19:22:00,65.0,28.0,-100.00,WNW,293,9.0,14.0,25,0.00,,,0.00,397.000000,,2013-06-04 01:22:00,
2013-06-03 19:32:00,65.0,28.0,-100.00,WNW,293,9.0,14.0,25,0.00,,,0.00,397.000000,,2013-06-04 01:32:00,
2013-06-03 19:52:00,63.0,29.0,-100.00,WNW,288,8.0,16.0,27,0.00,,,0.00,334.000000,,2013-06-04 01:52:00,
2013-06-03 20:02:00,63.0,29.0,-100.00,WNW,288,8.0,16.0,27,0.00,,,0.00,334.000000,,2013-06-04 02:02:00,
2013-06-03 20:12:00,63.0,29.0,-100.00,WNW,288,8.0,16.0,27,0.00,,,0.00,334.000000,,2013-06-04 02:12:00,
2013-06-03 20:21:00,63.0,29.0,-100.00,WNW,288,8.0,16.0,27,0.00,,,0.00,334.000000,,2013-06-04 02:21:00,
2013-06-03 20:32:00,63.0,29.0,-100.00,WNW,288,8.0,16.0,27,0.00,,,0.00,334.000000,,2013-06-04 02:32:00,
2013-06-03 20:52:00,60.0,29.0,-100.00,WNW,299,5.0,12.0,31,0.00,,,0.00,78.000000,,2013-06-04 02:52:00,
2013-06-03 21:02:00,60.0,29.0,-100.00,WNW,299,5.0,12.0,31,0.00,,,0.00,78.000000,,2013-06-04 03:02:00,
2013-06-03 21:12:00,60.0,29.0,-100.00,WNW,299,5.0,12.0,31,0.00,,,0.00,78.000000,,2013-06-04 03:12:00,
2013-06-03 21:22:00,60.0,29.0,-100.00,WNW,299,5.0,12.0,31,0.00,,,0.00,78.000000,,2013-06-04 03:22:00,
2013-06-03 21:32:00,60.0,29.0,-100.00,WNW,299,5.0,12.0,31,0.00,,,0.00,78.000000,,2013-06-04 03:32:00,
2013-06-03 21:53:00,56.0,31.0,-100.00,North,2,2.0,9.0,38,0.00,,,0.00,13.000000,,2013-06-04 03:53:00,
2013-06-03 22:03:00,56.0,31.0,-100.00,North,2,2.0,9.0,38,0.00,,,0.00,13.000000,,2013-06-04 04:03:00,
2013-06-03 22:13:00,56.0,31.0,-100.00,North,2,2.0,9.0,38,0.00,,,0.00,13.000000,,2013-06-04 04:13:00,
2013-06-03 22:23:00,56.0,31.0,-100.00,North,2,2.0,9.0,38,0.00,,,0.00,13.000000,,2013-06-04 04:23:00,
2013-06-03 22:33:00,56.0,31.0,-100.00,North,2,2.0,9.0,38,0.00,,,0.00,13.000000,,2013-06-04 04:33:00,
2013-06-03 22:53:00,54.0,32.0,-100.00,NW,309,4.0,9.0,43,0.00,,,0.00,0.000000,,2013-06-04 04:53:00,
2013-06-03 23:02:00,54.0,32.0,-100.00,NW,309,4.0,9.0,43,0.00,,,0.00,0.000000,,2013-06-04 05:02:00,
2013-06-03 23:12:00,54.0,32.0,-100.00,NW,309,4.0,9.0,43,0.00,,,0.00,0.000000,,2013-06-04 05:12:00,
2013-06-03 23:22:00,54.0,32.0,-100.00,NW,309,4.0,9.0,43,0.00,,,0.00,0.000000,,2013-06-04 05:22:00,
2013-06-03 23:32:00,54.0,32.0,-100.00,NW,309,4.0,9.0,43,0.00,,,0.00,0.000000,,2013-06-04 05:32:00,
2013-06-03 23:52:00,52.0,33.0,-100.00,WNW,301,4.0,9.0,48,0.00,,,0.00,0.000000,,2013-06-04 05:52:00,